createdAt,value
2023-05-01T00:00:32.305Z,66.38
2023-05-01T00:01:35.246Z,66.69
2023-05-01T00:02:39.515Z,66.58
2023-05-01T00:03:42.722Z,66.68
2023-05-01T00:04:46.193Z,66.18
2023-05-01T00:05:48.970Z,66.46
2023-05-01T00:06:52.319Z,66.40
2023-05-01T00:07:55.309Z,66.20
2023-05-01T00:08:58.202Z,66.25
2023-05-01T00:10:01.254Z,66.20
2023-05-01T00:11:05.388Z,66.46
2023-05-01T00:12:08.394Z,66.68
2023-05-01T00:13:11.691Z,66.93
2023-05-01T00:14:14.572Z,67.24
2023-05-01T00:15:17.533Z,67.12
2023-05-01T00:16:20.548Z,67.17
2023-05-01T00:17:23.404Z,67.23
2023-05-01T00:18:26.506Z,67.48
2023-05-01T00:19:30.025Z,67.73
2023-05-01T00:20:33.110Z,68.35
2023-05-01T00:21:36.282Z,68.16
2023-05-01T00:22:39.278Z,67.45
2023-05-01T00:23:42.073Z,67.69
2023-05-01T00:24:45.726Z,67.48
2023-05-01T00:25:49.769Z,67.58
2023-05-01T00:26:52.594Z,67.81
2023-05-01T00:27:55.846Z,68.24
2023-05-01T00:28:58.722Z,67.40
2023-05-01T00:30:02.030Z,67.32
2023-05-01T00:31:05.146Z,67.67
2023-05-01T00:32:08.316Z,67.80
2023-05-01T00:33:11.667Z,68.12
2023-05-01T00:34:14.559Z,68.34
2023-05-01T00:35:17.971Z,68.34
2023-05-01T00:36:21.093Z,68.30
2023-05-01T00:37:24.693Z,68.54
2023-05-01T00:38:27.981Z,68.61
2023-05-01T00:39:30.834Z,68.79
2023-05-01T00:40:42.817Z,69.12
2023-05-01T00:41:46.049Z,69.40
2023-05-01T00:42:49.226Z,69.08
2023-05-01T00:43:52.010Z,69.44
2023-05-01T00:44:54.790Z,69.69
2023-05-01T00:45:57.647Z,69.60
2023-05-01T00:47:02.834Z,69.74
2023-05-01T00:48:06.506Z,69.91
2023-05-01T00:49:09.907Z,69.80
2023-05-01T00:50:14.049Z,69.82
2023-05-01T00:51:17.116Z,69.48
2023-05-01T00:52:20.552Z,69.50
2023-05-01T00:53:26.810Z,69.65
2023-05-01T00:54:29.662Z,69.86
2023-05-01T00:55:33.832Z,70.08
2023-05-01T00:56:37.570Z,69.91
2023-05-01T00:57:41.205Z,69.54
2023-05-01T00:58:48.157Z,69.49
2023-05-01T00:59:51.043Z,69.94
2023-05-01T01:00:53.996Z,70.09
2023-05-01T01:01:57.461Z,70.41
2023-05-01T01:03:00.535Z,70.53
2023-05-01T01:04:03.990Z,70.49
2023-05-01T01:05:07.165Z,70.44
2023-05-01T01:06:18.817Z,71.14
2023-05-01T01:08:01.190Z,70.95
2023-05-01T01:09:12.984Z,70.86
2023-05-01T01:10:52.544Z,71.69
2023-05-01T01:12:01.508Z,71.82
2023-05-01T01:13:32.117Z,72.66
2023-05-01T01:14:50.901Z,73.33
2023-05-01T01:16:04.509Z,73.65
2023-05-01T01:17:25.676Z,73.66
2023-05-01T01:20:16.582Z,73.59
2023-05-01T01:21:28.623Z,73.43
2023-05-01T01:22:34.744Z,72.23
2023-05-01T01:24:07.370Z,72.68
2023-05-01T01:26:01.079Z,72.54
2023-05-01T01:27:25.245Z,72.09
2023-05-01T01:28:52.667Z,72.22
2023-05-01T01:30:29.653Z,72.90
2023-05-01T01:31:51.889Z,72.87
2023-05-01T01:33:15.775Z,73.21
2023-05-01T01:34:25.997Z,73.27
2023-05-01T01:35:31.352Z,73.86
2023-05-01T01:37:12.269Z,73.59
2023-05-01T01:38:22.907Z,73.64
2023-05-01T01:39:38.417Z,74.08
2023-05-01T01:40:56.669Z,73.68
2023-05-01T01:42:03.646Z,74.09
2023-05-01T01:43:08.799Z,74.53
2023-05-01T01:44:21.529Z,74.80
2023-05-01T01:45:35.096Z,75.03
2023-05-01T01:46:41.449Z,74.99
2023-05-01T01:47:45.815Z,74.93
2023-05-01T01:48:53.234Z,74.89
2023-05-01T01:49:57.533Z,75.17
2023-05-01T01:51:02.943Z,75.59
2023-05-01T01:52:08.415Z,75.36
2023-05-01T01:53:16.794Z,75.40
2023-05-01T01:54:26.478Z,75.39
2023-05-01T01:55:31.800Z,75.25
2023-05-01T01:56:38.145Z,75.22
2023-05-01T01:57:45.317Z,75.37
2023-05-01T01:58:48.933Z,75.40
2023-05-01T01:59:52.362Z,75.62
2023-05-01T02:00:57.078Z,75.49
2023-05-01T02:02:02.446Z,75.62
2023-05-01T02:03:06.415Z,75.58
2023-05-01T02:04:12.109Z,75.79
2023-05-01T02:05:18.488Z,76.02
2023-05-01T02:06:23.832Z,75.89
2023-05-01T02:07:29.737Z,75.62
2023-05-01T02:08:36.597Z,75.31
2023-05-01T02:09:42.258Z,75.25
2023-05-01T02:10:47.567Z,75.30
2023-05-01T02:11:52.321Z,75.32
2023-05-01T02:12:58.645Z,75.33
2023-05-01T02:14:03.953Z,74.76
2023-05-01T02:15:10.298Z,73.94
2023-05-01T02:16:14.832Z,73.90
2023-05-01T02:17:21.220Z,73.48
2023-05-01T02:18:25.901Z,73.48
2023-05-01T02:19:29.021Z,73.05
2023-05-01T02:20:33.733Z,72.70
2023-05-01T02:21:38.059Z,72.08
2023-05-01T02:22:42.328Z,71.73
2023-05-01T02:23:45.180Z,71.74
2023-05-01T02:24:49.896Z,71.62
2023-05-01T02:25:54.599Z,70.43
2023-05-01T02:27:04.366Z,69.61
2023-05-01T02:28:13.468Z,69.54
2023-05-01T02:29:17.143Z,69.45
2023-05-01T02:30:20.380Z,69.38
2023-05-01T02:31:23.891Z,69.75
2023-05-01T02:32:26.907Z,68.57
2023-05-01T02:33:29.923Z,68.68
2023-05-01T02:34:35.882Z,69.02
2023-05-01T02:35:44.355Z,69.06
2023-05-01T02:36:47.305Z,68.70
2023-05-01T02:37:50.338Z,67.97
2023-05-01T02:38:54.309Z,68.34
2023-05-01T02:39:58.716Z,66.84
2023-05-01T02:41:03.456Z,66.76
2023-05-01T02:42:08.322Z,67.13
2023-05-01T02:43:14.384Z,67.87
2023-05-01T02:44:19.420Z,67.64
2023-05-01T02:45:25.853Z,67.49
2023-05-01T02:46:31.342Z,67.30
2023-05-01T02:47:38.534Z,66.42
2023-05-01T02:48:43.221Z,65.64
2023-05-01T02:49:48.286Z,65.52
2023-05-01T02:50:52.496Z,65.71
2023-05-01T02:51:55.825Z,65.48
2023-05-01T02:53:01.294Z,64.94
2023-05-01T02:54:04.363Z,64.90
2023-05-01T02:55:09.126Z,64.21
2023-05-01T02:56:13.159Z,64.10
2023-05-01T02:57:18.393Z,64.23
2023-05-01T02:58:22.137Z,63.44
2023-05-01T02:59:25.034Z,64.00
2023-05-01T03:00:28.342Z,64.32
2023-05-01T03:01:31.588Z,63.67
2023-05-01T03:02:34.836Z,63.55
2023-05-01T03:03:38.200Z,63.32
2023-05-01T03:04:41.220Z,62.93
2023-05-01T03:05:44.511Z,62.91
2023-05-01T03:06:47.540Z,62.82
2023-05-01T03:07:51.450Z,62.80
2023-05-01T03:08:54.522Z,62.26
2023-05-01T03:09:58.070Z,62.94
2023-05-01T03:11:05.616Z,62.86
2023-05-01T03:12:08.554Z,62.60
2023-05-01T03:13:12.232Z,61.87
2023-05-01T03:14:15.805Z,62.07
2023-05-01T03:15:18.936Z,62.21
2023-05-01T03:16:23.791Z,62.38
2023-05-01T03:17:27.562Z,61.05
2023-05-01T03:18:30.705Z,61.27
2023-05-01T03:19:34.428Z,61.57
2023-05-01T03:20:37.296Z,60.69
2023-05-01T03:21:40.302Z,60.86
2023-05-01T03:22:43.265Z,60.57
2023-05-01T03:23:46.329Z,60.35
2023-05-01T03:24:50.381Z,60.83
2023-05-01T03:25:53.155Z,60.74
2023-05-01T03:26:56.288Z,60.08
2023-05-01T03:27:59.221Z,60.29
2023-05-01T03:29:02.456Z,60.06
2023-05-01T03:30:06.076Z,59.92
2023-05-01T03:31:09.080Z,60.72
2023-05-01T03:32:12.088Z,61.73
2023-05-01T03:33:15.306Z,62.37
2023-05-01T03:34:18.291Z,62.29
2023-05-01T03:35:21.138Z,61.82
2023-05-01T03:36:25.299Z,61.02
2023-05-01T03:37:29.072Z,60.32
2023-05-01T03:38:33.100Z,59.96
2023-05-01T03:39:36.459Z,59.76
2023-05-01T03:40:39.826Z,60.36
2023-05-01T03:41:42.758Z,60.87
2023-05-01T03:42:45.955Z,60.55
2023-05-01T03:43:49.352Z,59.94
2023-05-01T03:44:52.803Z,59.79
2023-05-01T03:45:55.737Z,60.27
2023-05-01T03:46:59.206Z,60.12
2023-05-01T03:48:02.163Z,59.91
2023-05-01T03:49:05.436Z,60.34
2023-05-01T03:50:09.440Z,60.21
2023-05-01T03:51:12.527Z,60.62
2023-05-01T03:52:15.617Z,60.36
2023-05-01T03:53:18.784Z,59.74
2023-05-01T03:54:21.608Z,59.81
2023-05-01T03:55:24.719Z,59.93
2023-05-01T03:56:27.670Z,59.95
2023-05-01T03:57:30.970Z,60.10
2023-05-01T03:58:34.090Z,59.70
2023-05-01T03:59:37.932Z,59.99
2023-05-01T04:00:41.935Z,59.80
2023-05-01T04:01:45.264Z,59.28
2023-05-01T04:02:48.543Z,59.73
2023-05-01T04:03:52.383Z,59.59
2023-05-01T04:04:55.479Z,58.91
2023-05-01T04:05:58.610Z,59.48
2023-05-01T04:07:02.087Z,59.87
2023-05-01T04:08:05.336Z,59.92
2023-05-01T04:09:08.624Z,60.54
2023-05-01T04:10:11.528Z,60.85
2023-05-01T04:11:14.641Z,60.41
2023-05-01T04:12:17.625Z,61.00
2023-05-01T04:13:20.657Z,61.48
2023-05-01T04:14:24.134Z,61.80
2023-05-01T04:15:27.353Z,62.24
2023-05-01T04:16:31.071Z,61.76
2023-05-01T04:17:36.460Z,61.75
2023-05-01T04:18:39.678Z,61.54
2023-05-01T04:19:42.647Z,61.94
2023-05-01T04:20:46.101Z,62.30
2023-05-01T04:21:48.990Z,63.08
2023-05-01T04:22:52.246Z,63.23
2023-05-01T04:23:55.209Z,63.99
2023-05-01T04:24:58.353Z,64.08
2023-05-01T04:26:01.268Z,64.31
2023-05-01T04:27:04.937Z,63.93
2023-05-01T04:28:07.875Z,63.84
2023-05-01T04:29:11.108Z,63.81
2023-05-01T04:30:14.120Z,63.55
2023-05-01T04:31:17.777Z,62.88
2023-05-01T04:32:20.753Z,63.64
2023-05-01T04:33:23.831Z,63.54
2023-05-01T04:34:29.551Z,63.77
2023-05-01T04:35:32.490Z,63.97
2023-05-01T04:36:35.345Z,63.49
2023-05-01T04:37:38.400Z,63.69
2023-05-01T04:38:41.598Z,63.02
2023-05-01T04:39:44.921Z,63.38
2023-05-01T04:40:47.774Z,63.50
2023-05-01T04:41:50.751Z,64.28
2023-05-01T04:42:53.946Z,63.86
2023-05-01T04:43:56.853Z,63.98
2023-05-01T04:45:04.361Z,64.20
2023-05-01T04:46:07.374Z,64.32
2023-05-01T04:47:10.322Z,65.08
2023-05-01T04:48:13.746Z,65.14
2023-05-01T04:49:16.602Z,65.04
2023-05-01T04:50:19.517Z,65.59
2023-05-01T04:51:22.764Z,65.82
2023-05-01T04:52:25.606Z,65.89
2023-05-01T04:53:28.585Z,65.60
2023-05-01T04:54:31.497Z,65.42
2023-05-01T04:55:34.505Z,64.65
2023-05-01T04:56:37.514Z,64.69
2023-05-01T04:57:40.428Z,64.63
2023-05-01T04:58:43.552Z,64.84
2023-05-01T04:59:48.013Z,65.02
2023-05-01T05:00:51.150Z,64.59
2023-05-01T05:01:54.105Z,64.95
2023-05-01T05:02:57.160Z,65.99
2023-05-01T05:04:00.296Z,66.36
2023-05-01T05:05:03.291Z,66.94
2023-05-01T05:06:06.391Z,67.56
2023-05-01T05:07:09.681Z,68.55
2023-05-01T05:08:13.000Z,68.59
2023-05-01T05:09:17.481Z,68.42
2023-05-01T05:10:22.305Z,68.47
2023-05-01T05:11:25.285Z,68.42
2023-05-01T05:12:28.166Z,69.31
2023-05-01T05:13:31.172Z,69.45
2023-05-01T05:14:34.347Z,69.20
2023-05-01T05:15:37.347Z,69.32
2023-05-01T05:16:40.176Z,69.17
2023-05-01T05:17:43.119Z,69.77
2023-05-01T05:18:46.212Z,69.21
2023-05-01T05:19:49.291Z,69.37
2023-05-01T05:20:52.416Z,69.69
2023-05-01T05:21:56.048Z,69.76
2023-05-01T05:22:59.060Z,70.45
2023-05-01T05:24:01.889Z,70.14
2023-05-01T05:25:06.982Z,68.58
2023-05-01T05:26:09.903Z,68.28
2023-05-01T05:27:12.918Z,68.50
2023-05-01T05:28:16.457Z,68.88
2023-05-01T05:29:19.248Z,67.22
2023-05-01T05:30:22.158Z,67.22
2023-05-01T05:31:25.204Z,67.01
2023-05-01T05:32:29.425Z,67.05
2023-05-01T05:33:32.900Z,67.54
2023-05-01T05:34:35.786Z,67.99
2023-05-01T05:35:38.782Z,67.91
2023-05-01T05:36:41.793Z,68.33
2023-05-01T05:37:46.195Z,67.92
2023-05-01T05:38:49.310Z,67.89
2023-05-01T05:39:53.068Z,67.36
2023-05-01T05:40:56.200Z,64.92
2023-05-01T05:41:59.242Z,64.02
2023-05-01T05:43:02.280Z,63.03
2023-05-01T05:44:05.030Z,63.56
2023-05-01T05:45:08.549Z,63.85
2023-05-01T05:46:11.825Z,62.92
2023-05-01T05:47:14.942Z,63.14
2023-05-01T05:48:18.299Z,62.41
2023-05-01T05:49:21.318Z,62.51
2023-05-01T05:50:24.322Z,60.98
2023-05-01T05:51:28.294Z,60.42
2023-05-01T05:52:31.391Z,58.60
2023-05-01T05:53:34.302Z,57.50
2023-05-01T05:54:37.134Z,57.02
2023-05-01T05:55:40.379Z,57.32
2023-05-01T05:56:43.938Z,55.56
2023-05-01T05:57:46.813Z,55.96
2023-05-01T05:58:49.625Z,55.92
2023-05-01T05:59:52.797Z,56.56
2023-05-01T06:00:58.380Z,56.71
2023-05-01T06:02:01.485Z,55.80
2023-05-01T06:03:04.518Z,54.98
2023-05-01T06:04:07.500Z,55.43
2023-05-01T06:05:10.936Z,56.44
2023-05-01T06:06:14.169Z,57.28
2023-05-01T06:07:17.729Z,56.97
2023-05-01T06:08:20.859Z,57.83
2023-05-01T06:09:23.844Z,56.66
2023-05-01T06:10:26.848Z,56.13
2023-05-01T06:11:30.001Z,56.46
2023-05-01T06:12:34.116Z,54.84
2023-05-01T06:13:39.258Z,54.88
2023-05-01T06:14:42.311Z,55.13
2023-05-01T06:15:45.625Z,54.87
2023-05-01T06:16:48.595Z,54.13
2023-05-01T06:17:51.794Z,54.16
2023-05-01T06:18:54.969Z,53.69
2023-05-01T06:19:58.262Z,53.51
2023-05-01T06:21:01.198Z,53.56
2023-05-01T06:22:04.442Z,53.17
2023-05-01T06:23:09.790Z,53.53
2023-05-01T06:24:12.982Z,53.31
2023-05-01T06:25:16.009Z,53.62
2023-05-01T06:26:18.877Z,53.36
2023-05-01T06:27:21.908Z,53.16
2023-05-01T06:28:25.044Z,53.65
2023-05-01T06:29:28.116Z,52.49
2023-05-01T06:30:31.183Z,52.88
2023-05-01T06:31:34.058Z,51.97
2023-05-01T06:32:37.224Z,52.50
2023-05-01T06:33:40.258Z,52.36
2023-05-01T06:34:43.178Z,52.05
2023-05-01T06:35:46.079Z,51.56
2023-05-01T06:36:49.252Z,53.15
2023-05-01T06:37:52.230Z,52.31
2023-05-01T06:38:55.225Z,50.83
2023-05-01T06:39:58.604Z,50.96
2023-05-01T06:41:01.684Z,52.35
2023-05-01T06:42:04.972Z,51.65
2023-05-01T06:43:08.289Z,51.50
2023-05-01T06:44:11.208Z,50.84
2023-05-01T06:45:14.012Z,50.98
2023-05-01T06:46:17.252Z,50.74
2023-05-01T06:47:20.307Z,51.02
2023-05-01T06:48:23.416Z,51.88
2023-05-01T06:49:26.491Z,52.69
2023-05-01T06:50:29.525Z,50.96
2023-05-01T06:51:33.024Z,50.58
2023-05-01T06:52:35.993Z,50.49
2023-05-01T06:53:40.795Z,50.42
2023-05-01T06:54:43.842Z,51.28
2023-05-01T06:55:46.689Z,51.25
2023-05-01T06:56:49.715Z,50.87
2023-05-01T06:57:52.588Z,50.80
2023-05-01T06:58:55.560Z,50.63
2023-05-01T06:59:58.823Z,50.46
2023-05-01T07:01:02.099Z,51.62
2023-05-01T07:02:05.120Z,51.17
2023-05-01T07:03:08.158Z,50.77
2023-05-01T07:04:11.338Z,50.49
2023-05-01T07:05:14.323Z,50.79
2023-05-01T07:06:17.353Z,52.32
2023-05-01T07:07:20.360Z,51.89
2023-05-01T07:08:24.712Z,52.96
2023-05-01T07:09:27.531Z,52.30
2023-05-01T07:10:30.991Z,51.34
2023-05-01T07:11:34.594Z,51.15
2023-05-01T07:12:37.757Z,50.76
2023-05-01T07:13:40.821Z,50.94
2023-05-01T07:14:43.737Z,51.92
2023-05-01T07:15:47.010Z,51.24
2023-05-01T07:16:50.554Z,52.93
2023-05-01T07:17:53.956Z,50.13
2023-05-01T07:18:57.474Z,50.45
2023-05-01T07:20:01.417Z,51.08
2023-05-01T07:21:04.447Z,50.97
2023-05-01T07:22:07.333Z,51.29
2023-05-01T07:23:10.186Z,49.75
2023-05-01T07:24:13.407Z,49.43
2023-05-01T07:25:16.487Z,49.84
2023-05-01T07:26:21.487Z,50.09
2023-05-01T07:27:25.101Z,50.02
2023-05-01T07:28:28.352Z,50.02
2023-05-01T07:29:31.285Z,48.36
2023-05-01T07:30:36.475Z,48.27
2023-05-01T07:31:39.537Z,48.82
2023-05-01T07:32:42.663Z,48.67
2023-05-01T07:33:45.917Z,47.70
2023-05-01T07:34:48.838Z,47.78
2023-05-01T07:35:52.059Z,47.15
2023-05-01T07:36:55.143Z,46.50
2023-05-01T07:37:58.224Z,46.09
2023-05-01T07:39:01.244Z,45.78
2023-05-01T07:40:04.539Z,44.44
2023-05-01T07:41:07.732Z,44.90
2023-05-01T07:42:10.957Z,43.36
2023-05-01T07:43:14.186Z,44.15
2023-05-01T07:44:17.400Z,43.52
2023-05-01T07:45:20.409Z,42.75
2023-05-01T07:46:23.699Z,42.84
2023-05-01T07:47:27.936Z,43.16
2023-05-01T07:48:32.248Z,43.05
2023-05-01T07:49:38.883Z,44.25
2023-05-01T07:50:41.953Z,43.90
2023-05-01T07:51:45.772Z,43.86
2023-05-01T07:52:48.687Z,43.88
2023-05-01T07:53:51.925Z,44.83
2023-05-01T07:54:54.900Z,44.86
2023-05-01T07:56:10.481Z,44.51
2023-05-01T07:57:13.297Z,45.26
2023-05-01T07:58:18.011Z,44.34
2023-05-01T07:59:20.832Z,45.88
2023-05-01T08:00:24.274Z,46.64
2023-05-01T08:01:27.407Z,45.89
2023-05-01T08:02:30.457Z,42.60
2023-05-01T08:03:33.841Z,42.19
2023-05-01T08:04:37.135Z,41.56
2023-05-01T08:05:41.900Z,41.98
2023-05-01T08:06:46.470Z,42.47
2023-05-01T08:07:49.394Z,40.52
2023-05-01T08:08:52.458Z,40.52
2023-05-01T08:09:57.862Z,39.96
2023-05-01T08:11:03.023Z,40.02
2023-05-01T08:12:06.104Z,41.14
2023-05-01T08:13:09.084Z,40.77
2023-05-01T08:14:11.993Z,39.73
2023-05-01T08:15:14.927Z,40.81
2023-05-01T08:16:19.769Z,39.87
2023-05-01T08:17:24.097Z,40.28
2023-05-01T08:18:27.123Z,40.38
2023-05-01T08:19:30.039Z,40.86
2023-05-01T08:20:32.830Z,41.58
2023-05-01T08:21:35.813Z,39.37
2023-05-01T08:22:39.280Z,40.70
2023-05-01T08:23:42.195Z,41.38
2023-05-01T08:24:45.100Z,39.69
2023-05-01T08:25:51.303Z,38.26
2023-05-01T08:26:54.211Z,38.78
2023-05-01T08:27:57.721Z,37.99
2023-05-01T08:29:00.707Z,38.44
2023-05-01T08:30:03.996Z,37.12
2023-05-01T08:31:07.983Z,36.96
2023-05-01T08:32:11.570Z,36.61
2023-05-01T08:33:15.126Z,37.07
2023-05-01T08:34:18.131Z,37.17
2023-05-01T08:35:21.028Z,35.94
2023-05-01T08:36:24.020Z,36.82
2023-05-01T08:37:27.036Z,36.71
2023-05-01T08:38:29.977Z,36.25
2023-05-01T08:39:32.908Z,36.80
2023-05-01T08:40:41.048Z,36.80
2023-05-01T08:41:48.064Z,36.83
2023-05-01T08:42:51.608Z,38.33
2023-05-01T08:43:59.092Z,38.24
2023-05-01T08:45:03.695Z,38.91
2023-05-01T08:46:09.162Z,35.97
2023-05-01T08:47:16.959Z,35.92
2023-05-01T08:48:21.120Z,36.51
2023-05-01T08:49:24.510Z,37.83
2023-05-01T08:50:28.214Z,37.29
2023-05-01T08:51:33.630Z,35.26
2023-05-01T08:52:41.313Z,35.90
2023-05-01T08:53:45.137Z,35.88
2023-05-01T08:54:51.026Z,35.83
2023-05-01T08:55:59.362Z,35.48
2023-05-01T08:57:07.749Z,36.13
2023-05-01T08:58:15.291Z,35.49
2023-05-01T08:59:19.717Z,35.72
2023-05-01T09:00:22.996Z,36.29
2023-05-01T09:01:28.473Z,36.44
2023-05-01T09:02:35.391Z,37.05
2023-05-01T09:03:38.517Z,34.83
2023-05-01T09:04:42.199Z,35.29
2023-05-01T09:05:45.780Z,35.34
2023-05-01T09:06:49.602Z,34.72
2023-05-01T09:07:52.814Z,35.07
2023-05-01T09:08:56.286Z,35.20
2023-05-01T09:09:59.586Z,36.09
2023-05-01T09:11:04.106Z,36.73
2023-05-01T09:12:25.050Z,37.32
2023-05-01T09:13:28.019Z,36.07
2023-05-01T09:14:32.155Z,36.12
2023-05-01T09:15:35.104Z,35.85
2023-05-01T09:16:38.257Z,35.08
2023-05-01T09:17:43.811Z,36.15
2023-05-01T09:18:47.393Z,34.62
2023-05-01T09:19:51.232Z,35.32
2023-05-01T09:20:55.442Z,36.10
2023-05-01T09:21:58.570Z,36.26
2023-05-01T09:23:01.506Z,34.62
2023-05-01T09:24:05.041Z,35.05
2023-05-01T09:25:08.194Z,34.83
2023-05-01T09:26:11.213Z,34.73
2023-05-01T09:27:14.870Z,34.36
2023-05-01T09:28:18.112Z,34.89
2023-05-01T09:29:41.052Z,35.00
2023-05-01T09:30:44.123Z,34.50
2023-05-01T09:31:47.135Z,34.27
2023-05-01T09:33:05.313Z,34.79
2023-05-01T09:34:08.677Z,34.66
2023-05-01T09:35:14.378Z,35.05
2023-05-01T09:36:18.605Z,34.50
2023-05-01T09:37:32.659Z,34.98
2023-05-01T09:38:35.781Z,35.89
2023-05-01T09:39:38.760Z,35.15
2023-05-01T09:40:41.862Z,34.79
2023-05-01T09:41:53.751Z,34.59
2023-05-01T09:42:57.343Z,35.74
2023-05-01T09:44:00.352Z,35.38
2023-05-01T09:45:05.494Z,35.35
2023-05-01T09:46:10.829Z,34.96
2023-05-01T09:47:14.248Z,34.91
2023-05-01T09:48:17.166Z,35.18
2023-05-01T09:49:20.845Z,35.04
2023-05-01T09:50:33.403Z,34.79
2023-05-01T09:51:37.027Z,34.17
2023-05-01T09:52:39.912Z,34.50
2023-05-01T09:53:42.680Z,35.42
2023-05-01T09:54:45.877Z,37.14
2023-05-01T09:56:02.202Z,35.86
2023-05-01T09:57:05.334Z,36.43
2023-05-01T09:58:08.169Z,34.88
2023-05-01T09:59:21.506Z,34.96
2023-05-01T10:00:25.370Z,33.51
2023-05-01T10:01:42.679Z,34.09
2023-05-01T10:02:47.921Z,33.61
2023-05-01T10:03:56.101Z,33.39
2023-05-01T10:05:00.359Z,33.29
2023-05-01T10:06:04.528Z,33.51
2023-05-01T10:07:14.900Z,34.24
2023-05-01T10:08:17.936Z,34.31
2023-05-01T10:09:29.742Z,34.43
2023-05-01T10:10:33.045Z,34.29
2023-05-01T10:11:53.939Z,33.70
2023-05-01T10:13:12.858Z,33.70
2023-05-01T10:14:15.930Z,33.53
2023-05-01T10:15:26.043Z,32.46
2023-05-01T10:16:31.017Z,33.34
2023-05-01T10:17:35.190Z,34.62
2023-05-01T10:18:38.976Z,34.60
2023-05-01T10:19:41.898Z,33.84
2023-05-01T10:20:44.879Z,33.56
2023-05-01T10:21:48.208Z,34.06
2023-05-01T10:22:51.119Z,33.78
2023-05-01T10:23:55.668Z,33.45
2023-05-01T10:24:59.718Z,34.35
2023-05-01T10:26:05.270Z,34.39
2023-05-01T10:27:10.513Z,33.65
2023-05-01T10:28:13.916Z,32.94
2023-05-01T10:29:19.346Z,32.83
2023-05-01T10:30:22.778Z,33.36
2023-05-01T10:31:27.975Z,35.12
2023-05-01T10:32:32.905Z,36.01
2023-05-01T10:33:36.265Z,36.01
2023-05-01T10:34:42.943Z,33.53
2023-05-01T10:35:54.750Z,34.52
2023-05-01T10:37:13.315Z,33.72
2023-05-01T10:38:37.963Z,32.91
2023-05-01T10:39:40.962Z,32.36
2023-05-01T10:40:47.646Z,32.65
2023-05-01T10:41:59.797Z,32.97
2023-05-01T10:43:18.828Z,32.91
2023-05-01T10:44:26.599Z,32.87
2023-05-01T10:45:33.829Z,33.04
2023-05-01T10:46:37.517Z,32.74
2023-05-01T10:47:47.782Z,33.78
2023-05-01T10:48:50.727Z,33.21
2023-05-01T10:50:15.959Z,32.30
2023-05-01T10:51:21.608Z,32.44
2023-05-01T10:52:25.257Z,32.97
2023-05-01T10:53:28.119Z,33.98
2023-05-01T10:54:33.335Z,34.34
2023-05-01T10:55:37.474Z,33.40
2023-05-01T10:56:44.316Z,33.59
2023-05-01T10:57:47.460Z,33.27
2023-05-01T10:58:53.321Z,31.89
2023-05-01T10:59:59.505Z,32.97
2023-05-01T11:01:28.510Z,32.92
2023-05-01T11:02:31.861Z,32.06
2023-05-01T11:03:35.027Z,32.46
2023-05-01T11:04:51.239Z,32.81
2023-05-01T11:06:05.314Z,32.04
2023-05-01T11:07:08.859Z,31.64
2023-05-01T11:08:46.418Z,31.91
2023-05-01T11:09:55.745Z,32.89
2023-05-01T11:10:59.143Z,31.99
2023-05-01T11:12:02.082Z,32.80
2023-05-01T11:13:09.795Z,32.70
2023-05-01T11:14:12.653Z,33.79
2023-05-01T11:15:35.866Z,33.19
2023-05-01T11:16:42.259Z,32.58
2023-05-01T11:17:46.815Z,32.51
2023-05-01T11:18:49.858Z,31.33
2023-05-01T11:19:52.832Z,31.76
2023-05-01T11:20:55.624Z,32.13
2023-05-01T11:21:59.076Z,32.28
2023-05-01T11:23:02.249Z,33.04
2023-05-01T11:24:06.912Z,34.10
2023-05-01T11:25:22.600Z,35.11
2023-05-01T11:26:26.304Z,33.05
2023-05-01T11:27:29.412Z,32.91
2023-05-01T11:28:33.416Z,33.13
2023-05-01T11:29:38.051Z,32.93
2023-05-01T11:30:41.517Z,33.25
2023-05-01T11:31:49.017Z,33.21
2023-05-01T11:32:52.880Z,33.87
2023-05-01T11:34:00.425Z,34.49
2023-05-01T11:35:03.900Z,33.10
2023-05-01T11:36:07.044Z,31.56
2023-05-01T11:37:09.932Z,31.58
2023-05-01T11:38:19.213Z,32.00
2023-05-01T11:39:22.475Z,32.75
2023-05-01T11:40:30.662Z,31.90
2023-05-01T11:41:33.554Z,31.49
2023-05-01T11:42:36.743Z,30.89
2023-05-01T11:43:56.794Z,32.14
2023-05-01T11:45:11.383Z,31.69
2023-05-01T11:46:14.363Z,32.44
2023-05-01T11:47:17.599Z,32.71
2023-05-01T11:48:22.162Z,32.87
2023-05-01T11:49:28.907Z,33.21
2023-05-01T11:50:36.778Z,33.39
2023-05-01T11:51:40.311Z,31.70
2023-05-01T11:53:01.108Z,31.74
2023-05-01T11:54:05.926Z,31.40
2023-05-01T11:55:09.163Z,31.77
2023-05-01T11:57:28.238Z,32.00
2023-05-01T11:58:34.642Z,30.55
2023-05-01T11:59:37.645Z,32.00
2023-05-01T12:00:42.816Z,33.76
2023-05-01T12:01:46.892Z,32.30
2023-05-01T12:03:01.259Z,31.88
2023-05-01T12:04:05.538Z,30.92
2023-05-01T12:05:18.339Z,31.43
2023-05-01T12:06:21.264Z,30.75
2023-05-01T12:07:24.783Z,30.35
2023-05-01T12:08:27.891Z,31.35
2023-05-01T12:09:31.701Z,31.40
2023-05-01T12:10:36.282Z,32.35
2023-05-01T12:11:40.504Z,32.06
2023-05-01T12:12:43.650Z,32.48
2023-05-01T12:13:48.216Z,33.41
2023-05-01T12:14:51.230Z,32.45
2023-05-01T12:15:55.894Z,31.95
2023-05-01T12:16:58.868Z,32.73
2023-05-01T12:18:02.146Z,32.76
2023-05-01T12:19:05.302Z,31.39
2023-05-01T12:20:09.541Z,32.29
2023-05-01T12:21:17.933Z,31.84
2023-05-01T12:22:22.091Z,34.80
2023-05-01T12:23:34.290Z,31.91
2023-05-01T12:24:37.944Z,32.41
2023-05-01T12:25:41.470Z,31.50
2023-05-01T12:26:46.360Z,32.29
2023-05-01T12:27:49.495Z,30.68
2023-05-01T12:29:05.671Z,31.79
2023-05-01T12:30:09.380Z,30.51
2023-05-01T12:31:13.540Z,31.25
2023-05-01T12:32:17.219Z,31.77
2023-05-01T12:33:21.624Z,32.35
2023-05-01T12:34:30.616Z,33.02
2023-05-01T12:35:33.581Z,30.83
2023-05-01T12:36:37.812Z,30.43
2023-05-01T12:37:40.683Z,30.89
2023-05-01T12:39:12.825Z,33.26
2023-05-01T12:40:16.398Z,30.73
2023-05-01T12:41:19.256Z,30.34
2023-05-01T12:42:22.366Z,30.35
2023-05-01T12:43:32.408Z,30.32
2023-05-01T12:44:35.263Z,30.46
2023-05-01T12:45:41.069Z,30.66
2023-05-01T12:46:47.652Z,30.70
2023-05-01T12:47:50.696Z,31.02
2023-05-01T12:48:55.036Z,30.86
2023-05-01T12:50:03.457Z,31.26
2023-05-01T12:51:07.953Z,31.35
2023-05-01T12:52:11.490Z,30.86
2023-05-01T12:53:14.444Z,30.78
2023-05-01T12:54:29.521Z,31.88
2023-05-01T12:55:34.615Z,31.05
2023-05-01T12:56:37.597Z,30.98
2023-05-01T12:57:54.405Z,30.61
2023-05-01T12:58:58.123Z,30.69
2023-05-01T13:00:05.283Z,31.06
2023-05-01T13:01:08.472Z,31.75
2023-05-01T13:02:13.625Z,30.24
2023-05-01T13:03:23.698Z,31.11
2023-05-01T13:04:27.541Z,31.91
2023-05-01T13:05:30.539Z,33.67
2023-05-01T13:06:36.517Z,32.20
2023-05-01T13:07:42.821Z,32.08
2023-05-01T13:08:46.188Z,31.27
2023-05-01T13:10:00.568Z,30.33
2023-05-01T13:11:13.281Z,30.73
2023-05-01T13:12:16.721Z,29.25
2023-05-01T13:13:35.184Z,30.02
2023-05-01T13:14:42.208Z,30.50
2023-05-01T13:15:45.177Z,30.59
2023-05-01T13:16:49.170Z,31.50
2023-05-01T13:17:52.214Z,31.88
2023-05-01T13:18:55.232Z,30.49
2023-05-01T13:20:00.792Z,30.68
2023-05-01T13:21:10.079Z,31.34
2023-05-01T13:22:13.679Z,32.29
2023-05-01T13:23:16.637Z,31.16
2023-05-01T13:24:20.201Z,31.60
2023-05-01T13:25:23.917Z,31.80
2023-05-01T13:26:32.984Z,31.89
2023-05-01T13:27:36.116Z,31.82
2023-05-01T13:28:47.071Z,33.35
2023-05-01T13:29:59.982Z,30.78
2023-05-01T13:31:03.998Z,31.30
2023-05-01T13:32:11.456Z,30.91
2023-05-01T13:33:14.560Z,30.67
2023-05-01T13:34:24.980Z,30.19
2023-05-01T13:35:28.317Z,30.69
2023-05-01T13:36:34.928Z,30.82
2023-05-01T13:37:40.280Z,31.23
2023-05-01T13:38:50.399Z,31.75
2023-05-01T13:39:58.924Z,32.17
2023-05-01T13:41:02.158Z,32.62
2023-05-01T13:42:06.620Z,30.87
2023-05-01T13:43:18.032Z,32.05
2023-05-01T13:44:22.422Z,32.73
2023-05-01T13:45:25.247Z,33.35
2023-05-01T13:46:29.550Z,33.57
2023-05-01T13:47:32.974Z,33.53
2023-05-01T13:48:36.131Z,34.08
2023-05-01T13:49:42.537Z,33.25
2023-05-01T13:50:45.587Z,31.84
2023-05-01T13:51:52.874Z,31.31
2023-05-01T13:52:55.924Z,32.17
2023-05-01T13:53:58.992Z,31.69
2023-05-01T13:55:03.599Z,31.35
2023-05-01T13:56:10.697Z,31.11
2023-05-01T13:57:13.943Z,30.95
2023-05-01T13:58:16.804Z,30.61
2023-05-01T13:59:19.691Z,30.40
2023-05-01T14:00:23.413Z,31.17
2023-05-01T14:01:26.454Z,31.47
2023-05-01T14:02:30.106Z,32.33
2023-05-01T14:03:41.773Z,33.08